CheckWX is a tool to help pilots better visualize weather data.  It is not intended as a substitute for an official pre-flight weather briefing.

15:30:40 UTC

KDTW METAR
Detroit Metropolitan Wayne County Airport
Detroit, Michigan, USA
Current

38 mins ago

KDTW 231453Z 22018G25KT 10SM BKN025 OVC060 22/17 A2990 RMK AO2 SLP124 60000 T02170167 58006
Observed
May-23 @ 14:53 UTC
Wind
  • 220° at 18 KTS
  • Gusting to 25 KTS
Visibility
10 SM
Flight Rules
MVFR
Cloud Levels
  • Broken at 2,500' AGL
  • Overcast at 6,000' AGL
Temperature
22°C / 72°F
Dewpoint
17°C / 63°F
Humidity
73%
Altimeter
29.9" Hg
Pressure
1012.52 hPa
Previous

47 mins ago

KDTW 231444Z 23015G22KT 10SM BKN025 OVC060 22/17 A2990 RMK AO2 T02170167
Observed
May-23 @ 14:44 UTC
Wind
  • 230° at 15 KTS
  • Gusting to 22 KTS
Visibility
10 SM
Flight Rules
MVFR
Cloud Levels
  • Broken at 2,500' AGL
  • Overcast at 6,000' AGL
Temperature
22°C / 72°F
Dewpoint
17°C / 63°F
Humidity
73%
Altimeter
29.9" Hg
Pressure
1012.52 hPa
Previous

2 hours ago

KDTW 231353Z 23018G23KT 10SM SCT030 BKN070 OVC220 21/17 A2992 RMK AO2 SLP130 T02110167
Observed
May-23 @ 13:53 UTC
Wind
  • 230° at 18 KTS
  • Gusting to 23 KTS
Visibility
10 SM
Flight Rules
VFR
Cloud Levels
  • Scattered at 3,000' AGL
  • Broken at 7,000' AGL
  • Overcast at 22,000' AGL
Temperature
21°C / 70°F
Dewpoint
17°C / 63°F
Humidity
78%
Altimeter
29.92" Hg
Pressure
1013.22 hPa